createdAt,value
2023-05-25T00:01:03.595Z,10.20
2023-05-25T00:03:34.075Z,10.53
2023-05-25T00:06:04.289Z,11.60
2023-05-25T00:08:31.525Z,11.20
2023-05-25T00:10:58.521Z,11.63
2023-05-25T00:13:25.438Z,11.47
2023-05-25T00:15:52.480Z,11.47
2023-05-25T00:18:19.466Z,12.10
2023-05-25T00:20:47.828Z,13.67
2023-05-25T00:23:15.028Z,14.30
2023-05-25T00:25:42.186Z,13.00
2023-05-25T00:28:11.319Z,13.30
2023-05-25T00:30:38.244Z,14.23
2023-05-25T00:33:05.492Z,14.53
2023-05-25T00:35:32.444Z,17.40
2023-05-25T00:37:59.513Z,15.73
2023-05-25T00:40:26.407Z,15.73
2023-05-25T00:42:53.656Z,16.07
2023-05-25T00:45:20.559Z,16.57
2023-05-25T00:47:51.934Z,15.80
2023-05-25T00:50:30.784Z,16.87
2023-05-25T00:52:58.081Z,18.47
2023-05-25T00:55:30.162Z,16.83
2023-05-25T00:58:00.913Z,18.53
2023-05-25T01:00:30.816Z,17.17
2023-05-25T01:03:00.158Z,16.67
2023-05-25T01:05:29.620Z,16.40
2023-05-25T01:08:02.196Z,17.70
2023-05-25T01:10:36.456Z,18.03
2023-05-25T01:13:04.921Z,19.53
2023-05-25T01:15:33.385Z,17.60
2023-05-25T01:18:00.739Z,17.70
2023-05-25T01:20:30.936Z,18.13
2023-05-25T01:23:03.859Z,17.77
2023-05-25T01:25:40.265Z,19.13
2023-05-25T01:28:32.197Z,17.40
2023-05-25T01:31:00.285Z,18.13
2023-05-25T01:33:28.905Z,17.73
2023-05-25T01:35:57.081Z,18.60
2023-05-25T01:38:23.936Z,18.07
2023-05-25T01:40:50.855Z,18.00
2023-05-25T01:43:18.123Z,19.10
2023-05-25T01:45:45.404Z,18.03
2023-05-25T01:48:26.158Z,18.90
2023-05-25T01:51:02.696Z,17.83
2023-05-25T01:53:34.299Z,18.20
2023-05-25T01:56:05.319Z,19.27
2023-05-25T01:58:40.203Z,17.60
2023-05-25T02:01:08.833Z,18.63
2023-05-25T02:03:37.709Z,20.20
2023-05-25T02:06:05.160Z,20.70
2023-05-25T02:08:32.252Z,22.10
2023-05-25T02:10:59.368Z,18.63
2023-05-25T02:13:26.294Z,17.63
2023-05-25T02:15:53.701Z,21.60
2023-05-25T02:18:20.598Z,18.00
2023-05-25T02:20:47.904Z,18.07
2023-05-25T02:23:15.058Z,19.47
2023-05-25T02:25:43.073Z,17.23
2023-05-25T02:28:12.091Z,18.50
2023-05-25T02:30:39.516Z,18.63
2023-05-25T02:33:06.581Z,17.43
2023-05-25T02:35:33.606Z,21.53
2023-05-25T02:38:00.586Z,21.23
2023-05-25T02:40:27.548Z,23.70
2023-05-25T02:42:54.601Z,22.40
2023-05-25T02:45:21.358Z,24.20
2023-05-25T02:47:48.325Z,23.90
2023-05-25T02:50:15.337Z,23.80
2023-05-25T02:52:42.196Z,22.97
2023-05-25T02:55:10.624Z,23.07
2023-05-25T02:57:39.219Z,23.03
2023-05-25T03:00:12.215Z,21.37
2023-05-25T03:02:39.420Z,20.00
2023-05-25T03:05:07.756Z,20.23
2023-05-25T03:07:34.880Z,21.17
2023-05-25T03:10:01.737Z,19.07
2023-05-25T03:12:28.614Z,20.40
2023-05-25T03:14:55.798Z,19.47
2023-05-25T03:17:22.795Z,18.50
2023-05-25T03:19:49.925Z,19.43
2023-05-25T03:22:17.585Z,20.17
2023-05-25T03:24:44.685Z,20.27
2023-05-25T03:27:12.252Z,21.53
2023-05-25T03:29:39.174Z,19.57
2023-05-25T03:32:06.660Z,21.10
2023-05-25T03:34:34.918Z,20.40
2023-05-25T03:37:02.245Z,21.30
2023-05-25T03:39:29.225Z,22.43
2023-05-25T03:41:58.857Z,20.27
2023-05-25T03:44:25.878Z,19.67
2023-05-25T03:46:52.708Z,20.17
2023-05-25T03:49:19.459Z,20.50
2023-05-25T03:51:46.440Z,20.37
2023-05-25T03:54:13.720Z,20.77
2023-05-25T03:56:40.578Z,19.23
2023-05-25T03:59:07.584Z,19.00
2023-05-25T04:01:38.382Z,17.97
2023-05-25T04:04:06.916Z,18.33
2023-05-25T04:06:37.410Z,18.90
2023-05-25T04:09:05.226Z,16.40
2023-05-25T04:11:32.301Z,16.17
2023-05-25T04:14:00.166Z,17.50
2023-05-25T04:16:27.394Z,14.50
2023-05-25T04:18:54.523Z,13.37
2023-05-25T04:21:21.579Z,11.20
2023-05-25T04:23:48.490Z,8.07
2023-05-25T04:26:16.769Z,7.70
2023-05-25T04:28:43.710Z,6.77
2023-05-25T04:31:13.066Z,6.17
2023-05-25T04:33:40.868Z,5.87
2023-05-25T04:36:11.565Z,5.47
2023-05-25T04:38:38.686Z,5.00
2023-05-25T04:41:06.681Z,5.03
2023-05-25T04:43:34.045Z,4.37
2023-05-25T04:46:01.287Z,3.97
2023-05-25T04:48:34.675Z,4.70
2023-05-25T04:51:04.948Z,4.80
2023-05-25T04:53:32.517Z,4.90
2023-05-25T04:55:59.599Z,4.77
2023-05-25T04:58:26.585Z,4.47
2023-05-25T05:00:53.435Z,4.87
2023-05-25T05:03:21.002Z,4.50
2023-05-25T05:05:48.145Z,4.30
2023-05-25T05:08:15.127Z,4.30
2023-05-25T05:10:42.468Z,4.00
2023-05-25T05:13:11.463Z,4.00
2023-05-25T05:15:38.487Z,3.90
2023-05-25T05:18:06.566Z,4.00
2023-05-25T05:20:33.891Z,3.50
2023-05-25T05:23:00.975Z,3.90
2023-05-25T05:25:27.942Z,3.47
2023-05-25T05:27:55.054Z,3.40
2023-05-25T05:30:22.522Z,3.30
2023-05-25T05:32:49.331Z,2.97
2023-05-25T05:35:16.232Z,3.27
2023-05-25T05:37:44.354Z,3.33
2023-05-25T05:40:12.139Z,3.23
2023-05-25T05:42:39.161Z,3.30
2023-05-25T05:45:06.752Z,3.27
2023-05-25T05:47:33.495Z,3.40
2023-05-25T05:50:00.640Z,3.50
2023-05-25T05:52:27.433Z,3.07
2023-05-25T05:54:54.435Z,3.53
2023-05-25T05:57:22.314Z,3.47
2023-05-25T05:59:49.411Z,3.50
2023-05-25T06:02:16.688Z,3.17
2023-05-25T06:04:43.663Z,3.27
2023-05-25T06:07:10.761Z,3.67
2023-05-25T06:09:37.712Z,3.17
2023-05-25T06:12:04.679Z,3.70
2023-05-25T06:14:32.868Z,3.70
2023-05-25T06:16:59.845Z,3.70
2023-05-25T06:19:27.156Z,3.70
2023-05-25T06:21:54.038Z,3.47
2023-05-25T06:24:21.021Z,3.93
2023-05-25T06:26:47.874Z,3.30
2023-05-25T06:29:17.002Z,3.93
2023-05-25T06:31:44.417Z,3.77
2023-05-25T06:34:11.355Z,4.13
2023-05-25T06:36:38.347Z,4.13
2023-05-25T06:39:05.327Z,3.90
2023-05-25T06:41:32.632Z,4.23
2023-05-25T06:43:59.426Z,4.00
2023-05-25T06:46:26.422Z,4.67
2023-05-25T06:48:53.483Z,4.17
2023-05-25T06:51:20.401Z,4.30
2023-05-25T06:53:47.331Z,4.30
2023-05-25T06:56:14.399Z,4.30
2023-05-25T06:58:41.696Z,4.47
2023-05-25T07:01:08.601Z,3.93
2023-05-25T07:03:35.894Z,4.50
2023-05-25T07:06:03.031Z,4.20
2023-05-25T07:08:30.056Z,4.10
2023-05-25T07:10:57.191Z,4.23
2023-05-25T07:13:24.194Z,4.07
2023-05-25T07:15:52.983Z,4.60
2023-05-25T07:18:19.884Z,4.20
2023-05-25T07:20:48.544Z,5.13
2023-05-25T07:23:15.467Z,4.90
2023-05-25T07:25:42.583Z,5.50
2023-05-25T07:28:09.941Z,5.07
2023-05-25T07:30:36.879Z,4.60
2023-05-25T07:33:03.990Z,4.53
2023-05-25T07:35:31.022Z,5.33
2023-05-25T07:38:04.512Z,4.70
2023-05-25T07:40:31.431Z,4.60
2023-05-25T07:42:58.401Z,4.67
2023-05-25T07:45:25.496Z,4.50
2023-05-25T07:47:52.693Z,4.70
2023-05-25T07:50:19.949Z,4.83
2023-05-25T07:52:50.539Z,5.10
2023-05-25T07:55:19.541Z,5.13
2023-05-25T07:57:46.479Z,5.10
2023-05-25T08:00:13.933Z,4.67
2023-05-25T08:02:41.355Z,5.10
2023-05-25T08:05:09.045Z,4.70
2023-05-25T08:07:36.870Z,4.90
2023-05-25T08:10:04.605Z,4.37
2023-05-25T08:12:46.918Z,5.07
2023-05-25T08:15:15.197Z,5.00
2023-05-25T08:17:42.456Z,4.50
2023-05-25T08:20:10.819Z,4.67
2023-05-25T08:22:38.031Z,4.67
2023-05-25T08:25:05.636Z,4.40
2023-05-25T08:27:35.426Z,4.93
2023-05-25T08:30:03.295Z,4.70
2023-05-25T08:32:30.376Z,4.53
2023-05-25T08:34:57.343Z,4.70
2023-05-25T08:37:25.069Z,4.97
2023-05-25T08:39:52.179Z,4.67
2023-05-25T08:42:19.148Z,4.43
2023-05-25T08:44:46.216Z,4.40
2023-05-25T08:47:15.531Z,4.40
2023-05-25T08:49:45.467Z,4.85
2023-05-25T08:52:15.653Z,5.10
2023-05-25T08:54:48.391Z,5.07
2023-05-25T08:57:26.152Z,5.00
2023-05-25T08:59:56.537Z,4.45
2023-05-25T09:02:33.533Z,5.20
2023-05-25T09:05:02.450Z,5.10
2023-05-25T09:07:30.655Z,5.37
2023-05-25T09:10:01.209Z,4.57
2023-05-25T09:12:31.755Z,4.97
2023-05-25T09:14:59.343Z,5.20
2023-05-25T09:17:27.076Z,5.27
2023-05-25T09:19:54.654Z,4.37
2023-05-25T09:22:22.219Z,4.30
2023-05-25T09:24:49.513Z,4.93
2023-05-25T09:27:23.103Z,5.17
2023-05-25T09:29:50.980Z,5.53
2023-05-25T09:32:21.173Z,5.80
2023-05-25T09:34:48.376Z,5.10
2023-05-25T09:37:19.461Z,5.60
2023-05-25T09:39:48.098Z,6.13
2023-05-25T09:42:15.205Z,5.93
2023-05-25T09:44:43.398Z,6.07
2023-05-25T09:47:11.155Z,6.03
2023-05-25T09:49:38.910Z,6.00
2023-05-25T09:52:07.199Z,5.77
2023-05-25T09:54:34.139Z,5.17
2023-05-25T09:57:04.358Z,5.43
2023-05-25T09:59:32.046Z,5.43
2023-05-25T10:01:59.715Z,5.43
2023-05-25T10:04:26.715Z,5.03
2023-05-25T10:06:57.026Z,5.80
2023-05-25T10:09:26.291Z,5.40
2023-05-25T10:11:55.050Z,5.97
2023-05-25T10:14:29.121Z,5.80
2023-05-25T10:16:59.603Z,6.40
2023-05-25T10:19:34.674Z,6.07
2023-05-25T10:22:15.883Z,6.30
2023-05-25T10:25:03.706Z,6.40
2023-05-25T10:27:38.021Z,6.20
2023-05-25T10:30:06.426Z,6.30
2023-05-25T10:32:35.222Z,6.47
2023-05-25T10:35:03.727Z,5.90
2023-05-25T10:37:32.034Z,6.10
2023-05-25T10:40:00.582Z,5.77
2023-05-25T10:42:28.946Z,6.57
2023-05-25T10:44:58.032Z,6.13
2023-05-25T10:47:25.966Z,6.37
2023-05-25T10:49:58.220Z,6.57
2023-05-25T10:52:29.879Z,5.97
2023-05-25T10:54:58.635Z,6.17
2023-05-25T10:57:26.440Z,6.23
2023-05-25T11:00:00.335Z,6.20
2023-05-25T11:02:32.399Z,6.30
2023-05-25T11:05:27.362Z,6.03
2023-05-25T11:07:58.169Z,6.13
2023-05-25T11:10:49.383Z,6.23
2023-05-25T11:13:31.799Z,6.60
2023-05-25T11:16:20.850Z,6.10
2023-05-25T11:18:59.298Z,6.27
2023-05-25T11:21:30.609Z,5.97
2023-05-25T11:24:11.057Z,6.33
2023-05-25T11:26:38.106Z,6.00
2023-05-25T11:29:16.348Z,6.57
2023-05-25T11:31:43.973Z,6.30
2023-05-25T11:34:12.575Z,6.23
2023-05-25T11:36:39.911Z,6.63
2023-05-25T11:39:17.154Z,7.07
2023-05-25T11:41:57.227Z,6.73
2023-05-25T11:44:28.871Z,6.60
2023-05-25T11:46:57.960Z,5.77
2023-05-25T11:49:26.065Z,6.20
2023-05-25T11:51:54.180Z,6.23
2023-05-25T11:54:28.542Z,6.23
2023-05-25T11:57:00.200Z,5.83
2023-05-25T11:59:29.788Z,6.17
2023-05-25T12:02:00.864Z,6.70
2023-05-25T12:04:29.181Z,6.27
2023-05-25T12:07:06.640Z,6.13
2023-05-25T12:09:34.841Z,6.40
2023-05-25T12:12:04.580Z,6.30
2023-05-25T12:14:35.173Z,6.60
2023-05-25T12:17:02.512Z,6.17
2023-05-25T12:19:29.831Z,6.40
2023-05-25T12:21:56.983Z,5.87
2023-05-25T12:26:59.003Z,6.17
2023-05-25T12:29:26.667Z,5.97
2023-05-25T12:31:53.763Z,7.10
2023-05-25T12:34:21.388Z,6.70
2023-05-25T12:36:48.260Z,6.80
2023-05-25T12:39:16.885Z,7.00
2023-05-25T12:41:55.072Z,6.50
2023-05-25T12:44:24.794Z,6.67
2023-05-25T12:46:53.297Z,6.70
2023-05-25T12:49:33.233Z,6.17
2023-05-25T12:52:02.569Z,6.43
2023-05-25T12:54:47.661Z,5.93
2023-05-25T12:57:16.431Z,7.00
2023-05-25T12:59:47.437Z,7.17
2023-05-25T13:02:15.220Z,6.33
2023-05-25T13:04:42.990Z,6.40
2023-05-25T13:07:10.653Z,6.60
2023-05-25T13:09:38.057Z,6.53
2023-05-25T13:12:05.290Z,6.80
2023-05-25T13:14:32.446Z,7.17
2023-05-25T13:16:59.484Z,6.80
2023-05-25T13:19:27.350Z,7.10
2023-05-25T13:21:56.474Z,6.90
2023-05-25T13:24:23.683Z,7.13
2023-05-25T13:26:51.231Z,6.50
2023-05-25T13:29:18.370Z,6.37
2023-05-25T13:31:45.621Z,6.50
2023-05-25T13:34:13.252Z,6.87
2023-05-25T13:36:40.283Z,6.83
2023-05-25T13:39:07.906Z,6.63
2023-05-25T13:41:34.841Z,6.40
2023-05-25T13:44:01.597Z,6.67
2023-05-25T13:46:34.778Z,6.53
2023-05-25T13:49:04.812Z,6.90
2023-05-25T13:51:31.823Z,6.63
2023-05-25T13:53:58.940Z,6.60
2023-05-25T13:56:25.801Z,6.43
2023-05-25T13:58:52.969Z,6.30
2023-05-25T14:01:20.395Z,7.17
2023-05-25T14:03:47.729Z,7.50
2023-05-25T14:06:14.951Z,7.00
2023-05-25T14:08:41.935Z,6.67
2023-05-25T14:11:10.798Z,5.83
2023-05-25T14:13:37.747Z,6.33
2023-05-25T14:16:04.694Z,6.70
2023-05-25T14:18:31.652Z,6.70
2023-05-25T14:20:58.650Z,6.57
2023-05-25T14:23:25.704Z,6.33
2023-05-25T14:25:52.832Z,7.30
2023-05-25T14:28:19.923Z,6.93
2023-05-25T14:30:46.943Z,6.90
2023-05-25T14:33:16.076Z,6.73
2023-05-25T14:35:43.471Z,5.90
2023-05-25T14:38:10.903Z,6.77
2023-05-25T14:40:38.077Z,6.53
2023-05-25T14:43:05.049Z,6.73
2023-05-25T14:45:33.477Z,6.70
2023-05-25T14:48:15.169Z,6.50
2023-05-25T14:50:44.652Z,6.37
2023-05-25T14:53:12.100Z,7.33
2023-05-25T14:55:39.168Z,6.47
2023-05-25T14:58:06.016Z,6.43
2023-05-25T15:00:32.951Z,6.20
2023-05-25T15:03:00.085Z,6.53
2023-05-25T15:05:27.212Z,6.23
2023-05-25T15:07:54.108Z,6.40
2023-05-25T15:10:21.025Z,7.07
2023-05-25T15:12:48.140Z,7.20
2023-05-25T15:15:15.581Z,6.73
2023-05-25T15:17:42.630Z,6.77
2023-05-25T15:20:12.305Z,6.60
2023-05-25T15:22:39.127Z,7.43
2023-05-25T15:25:06.391Z,6.27
2023-05-25T15:27:35.016Z,6.30
2023-05-25T15:30:02.091Z,5.63
2023-05-25T15:32:29.017Z,6.30
2023-05-25T15:34:55.909Z,7.37
2023-05-25T15:37:22.896Z,6.13
2023-05-25T15:39:50.574Z,7.43
2023-05-25T15:42:17.390Z,5.77
2023-05-25T15:44:44.234Z,6.50
2023-05-25T15:47:11.170Z,6.97
2023-05-25T15:49:38.384Z,6.73
2023-05-25T15:52:06.787Z,6.33
2023-05-25T15:54:33.806Z,6.50
2023-05-25T15:57:02.292Z,6.20
2023-05-25T15:59:29.300Z,6.23
2023-05-25T16:01:56.181Z,6.47
2023-05-25T16:04:23.379Z,7.30
2023-05-25T16:06:50.345Z,6.73
2023-05-25T16:09:17.333Z,8.23
2023-05-25T16:11:45.787Z,7.53
2023-05-25T16:14:12.954Z,6.47
2023-05-25T16:16:39.817Z,6.80
2023-05-25T16:19:07.900Z,6.47
2023-05-25T16:21:37.895Z,6.23
2023-05-25T16:24:06.531Z,6.83
2023-05-25T16:26:35.210Z,6.67
2023-05-25T16:29:02.622Z,6.07
2023-05-25T16:31:29.635Z,6.17
2023-05-25T16:33:56.815Z,6.90
2023-05-25T16:36:25.293Z,6.57
2023-05-25T16:38:53.546Z,6.73
2023-05-25T16:41:20.428Z,7.40
2023-05-25T16:43:47.703Z,6.73
2023-05-25T16:46:15.096Z,6.03
2023-05-25T16:48:42.434Z,6.60
2023-05-25T16:51:15.308Z,6.30
2023-05-25T16:53:43.815Z,6.13
2023-05-25T16:56:11.169Z,5.70
2023-05-25T16:58:38.017Z,6.23
2023-05-25T17:01:05.060Z,6.03
2023-05-25T17:03:32.412Z,7.13
2023-05-25T17:05:59.549Z,6.03
2023-05-25T17:08:26.607Z,6.30
2023-05-25T17:10:54.048Z,5.70
2023-05-25T17:13:21.371Z,5.93
2023-05-25T17:15:48.826Z,6.10
2023-05-25T17:18:16.242Z,5.80
2023-05-25T17:20:43.400Z,6.40
2023-05-25T17:23:10.440Z,6.07
2023-05-25T17:25:39.287Z,5.70
2023-05-25T17:28:06.583Z,5.87
2023-05-25T17:30:34.818Z,6.37
2023-05-25T17:33:02.096Z,6.30
2023-05-25T17:35:31.639Z,5.97
2023-05-25T17:37:58.610Z,6.50
2023-05-25T17:40:25.690Z,5.60
2023-05-25T17:42:52.790Z,6.53
2023-05-25T17:45:20.055Z,5.90
2023-05-25T17:47:47.098Z,5.93
2023-05-25T17:50:14.131Z,6.53
2023-05-25T17:52:41.189Z,5.60
2023-05-25T17:55:09.340Z,5.60
2023-05-25T17:57:36.670Z,6.13
2023-05-25T18:00:04.481Z,6.17
2023-05-25T18:02:31.688Z,6.07
2023-05-25T18:04:59.368Z,6.03
2023-05-25T18:07:26.386Z,5.50
2023-05-25T18:09:53.266Z,5.90
2023-05-25T18:12:20.347Z,6.47
2023-05-25T18:14:47.808Z,6.13
2023-05-25T18:17:14.851Z,5.53
2023-05-25T18:19:41.902Z,6.40
2023-05-25T18:22:08.999Z,6.33
2023-05-25T18:24:36.752Z,5.93
2023-05-25T18:27:07.260Z,6.00
2023-05-25T18:29:34.436Z,6.80
2023-05-25T18:32:01.553Z,6.80
2023-05-25T18:34:29.791Z,5.90
2023-05-25T18:36:56.878Z,5.67
2023-05-25T18:39:23.744Z,6.53
2023-05-25T18:41:50.761Z,6.37
2023-05-25T18:44:17.712Z,5.40
2023-05-25T18:46:46.750Z,6.20
2023-05-25T18:49:13.993Z,6.00
2023-05-25T18:51:41.090Z,5.93
2023-05-25T18:54:08.311Z,6.30
2023-05-25T18:56:35.231Z,6.03
2023-05-25T18:59:02.238Z,6.13
2023-05-25T19:01:29.250Z,6.27
2023-05-25T19:03:58.539Z,6.43
2023-05-25T19:06:27.401Z,6.10
2023-05-25T19:08:55.437Z,5.50
2023-05-25T19:11:22.690Z,6.43
2023-05-25T19:13:49.538Z,5.50
2023-05-25T19:16:16.963Z,6.33
2023-05-25T19:18:44.366Z,5.53
2023-05-25T19:21:11.532Z,6.00
2023-05-25T19:23:38.408Z,5.50
2023-05-25T19:26:05.475Z,5.77
2023-05-25T19:28:33.473Z,6.23
2023-05-25T19:31:01.347Z,6.03
2023-05-25T19:33:28.471Z,5.73
2023-05-25T19:35:55.402Z,5.90
2023-05-25T19:38:24.694Z,5.70
2023-05-25T19:40:53.596Z,5.80
2023-05-25T19:43:20.594Z,5.87
2023-05-25T19:45:47.843Z,5.77
2023-05-25T19:48:15.011Z,5.70
2023-05-25T19:50:42.196Z,6.03
2023-05-25T19:53:09.048Z,6.03
2023-05-25T19:55:37.037Z,5.80
2023-05-25T19:58:04.044Z,6.43
2023-05-25T20:00:32.441Z,5.77
2023-05-25T20:02:59.849Z,6.10
2023-05-25T20:05:27.095Z,6.50
2023-05-25T20:07:56.093Z,5.70
2023-05-25T20:10:23.207Z,6.27
2023-05-25T20:12:49.960Z,6.50
2023-05-25T20:15:17.461Z,6.37
2023-05-25T20:17:46.933Z,6.30
2023-05-25T20:20:16.377Z,6.60
2023-05-25T20:22:43.322Z,6.87
2023-05-25T20:25:10.236Z,6.30
2023-05-25T20:27:37.062Z,5.53
2023-05-25T20:30:04.415Z,5.83
2023-05-25T20:32:31.549Z,6.70
2023-05-25T20:34:58.654Z,6.93
2023-05-25T20:37:25.623Z,6.77
2023-05-25T20:39:52.662Z,6.97
2023-05-25T20:42:19.672Z,6.47
2023-05-25T20:44:46.660Z,6.43
2023-05-25T20:47:16.556Z,6.57
2023-05-25T20:49:43.423Z,7.37
2023-05-25T20:52:10.232Z,6.37
2023-05-25T20:54:39.574Z,7.10
2023-05-25T20:57:08.055Z,5.93
2023-05-25T20:59:34.885Z,7.03
2023-05-25T21:02:02.218Z,6.03
2023-05-25T21:04:31.098Z,7.97
2023-05-25T21:06:58.972Z,6.23
2023-05-25T21:09:26.560Z,6.17
2023-05-25T21:11:53.473Z,7.27
2023-05-25T21:14:20.322Z,7.00
2023-05-25T21:16:47.353Z,6.53
2023-05-25T21:19:14.515Z,7.20
2023-05-25T21:21:41.518Z,6.73
2023-05-25T21:24:08.710Z,6.70
2023-05-25T21:26:35.544Z,6.80
2023-05-25T21:29:02.368Z,7.73
2023-05-25T21:31:29.689Z,6.23
2023-05-25T21:33:58.257Z,6.60
2023-05-25T21:36:26.283Z,7.03
2023-05-25T21:38:53.287Z,7.13
2023-05-25T21:41:20.519Z,7.03
2023-05-25T21:43:48.472Z,6.63
2023-05-25T21:46:15.411Z,6.80
2023-05-25T21:48:42.334Z,8.20
2023-05-25T21:51:09.352Z,6.97
2023-05-25T21:53:39.779Z,7.20
2023-05-25T21:56:06.665Z,8.20
2023-05-25T21:58:33.716Z,8.20
2023-05-25T22:01:00.783Z,7.30
2023-05-25T22:03:28.168Z,7.27
2023-05-25T22:05:55.099Z,7.27
2023-05-25T22:08:22.189Z,7.70
2023-05-25T22:10:49.647Z,7.77
2023-05-25T22:13:17.071Z,8.20
2023-05-25T22:15:44.944Z,7.70
2023-05-25T22:18:12.225Z,7.20
2023-05-25T22:20:41.664Z,7.97
2023-05-25T22:23:10.997Z,7.90
2023-05-25T22:25:38.095Z,8.33
2023-05-25T22:28:05.187Z,7.97
2023-05-25T22:30:32.215Z,7.87
2023-05-25T22:32:59.429Z,7.30
2023-05-25T22:35:26.541Z,6.73
2023-05-25T22:37:53.481Z,8.17
2023-05-25T22:40:20.465Z,7.00
2023-05-25T22:42:50.479Z,8.03
2023-05-25T22:45:18.991Z,7.10
2023-05-25T22:47:45.982Z,7.07
2023-05-25T22:50:13.345Z,8.57
2023-05-25T22:52:43.169Z,7.77
2023-05-25T22:55:11.155Z,7.43
2023-05-25T22:57:38.334Z,7.50
2023-05-25T23:00:06.094Z,8.60
2023-05-25T23:02:33.300Z,8.97
2023-05-25T23:05:00.382Z,8.70
2023-05-25T23:07:27.500Z,7.90
2023-05-25T23:09:54.372Z,7.27
2023-05-25T23:12:21.447Z,7.60
2023-05-25T23:14:48.469Z,7.80
2023-05-25T23:17:15.403Z,7.70
2023-05-25T23:19:44.973Z,7.30
2023-05-25T23:22:12.535Z,8.37
2023-05-25T23:24:40.637Z,7.80
2023-05-25T23:27:08.075Z,7.27
2023-05-25T23:29:35.141Z,6.57
2023-05-25T23:32:02.048Z,6.13
2023-05-25T23:34:29.124Z,8.63
2023-05-25T23:36:55.993Z,7.50
2023-05-25T23:39:22.953Z,7.67
2023-05-25T23:41:49.890Z,7.47
2023-05-25T23:44:16.885Z,8.20
2023-05-25T23:46:43.900Z,7.13
2023-05-25T23:49:10.871Z,6.90
2023-05-25T23:51:38.145Z,6.97
2023-05-25T23:54:05.118Z,8.50
2023-05-25T23:56:32.878Z,7.33
2023-05-25T23:58:59.779Z,6.43
